North Canton, Connecticut
Current Conditions -  °F | °C
As of 4:51 PM on Wednesday 17 Dec 2014 (Local Time) from KBDL Reporting Station
Overcast Overcast  
Wind Chill: 43°   Ceiling: 3700
Heat Index: 47°   Visibility: 10mi
Dew Point: 37°   Wind: 9mph
Humidity: 68%   Direction: 300°WNW
Pressure: 29.78"   Gusts: NA
Location:  41.94°N, 72.91°W
Report Text: KBDL 172151Z 30008KT 10SM OVC037 08/03 A2978 RMK AO2 SLP084 T00830028
Loading
Personal Weather Stations






























Interactive Weather Map New forecast layout! Learn more

10-Day Weather Forecast

Advertisements
Track Severe Weather on mobile